Time;durP1;ratioP1;P1;durP2;ratioP2;P2;SDS_P1;SDS_P2;PMS_P1;PMS_P2;Temp;Humidity;BMP_temperature;BMP_pressure;BME280_temperature;BME280_humidity;BME280_pressure;Samples;Min_cycle;Max_cycle;Signal;HPM_P1;HPM_P2
2023/03/22 00:00:52;;;;;;;1.50;1.20;;;;;;;6.52;72.11;97654.84;1713232;75;629915;-75
2023/03/22 00:03:23;;;;;;;2.55;1.70;;;;;;;6.65;72.39;97652.75;1705538;75;688863;-74
2023/03/22 00:05:59;;;;;;;2.10;1.40;;;;;;;6.67;72.24;97655.78;1713472;75;630972;-74
2023/03/22 00:08:29;;;;;;;1.60;1.10;;;;;;;6.63;72.36;97654.41;1705841;75;688841;-73
2023/03/22 00:11:02;;;;;;;1.70;1.30;;;;;;;6.63;70.81;97657.13;1713704;75;629930;-75
2023/03/22 00:13:33;;;;;;;1.75;1.15;;;;;;;6.63;70.39;97648.97;1705946;75;687786;-76
2023/03/22 00:16:03;;;;;;;1.20;1.10;;;;;;;6.58;71.01;97653.78;1713704;75;629985;-75
2023/03/22 00:18:34;;;;;;;1.00;0.90;;;;;;;6.60;71.57;97656.81;1706266;75;685933;-76
2023/03/22 00:21:04;;;;;;;1.80;1.30;;;;;;;6.58;70.82;97653.03;1714478;75;629890;-75
2023/03/22 00:23:35;;;;;;;1.50;1.10;;;;;;;6.55;71.37;97651.97;1706057;75;688787;-74
2023/03/22 00:26:09;;;;;;;1.60;1.10;;;;;;;6.56;72.14;97652.72;1714320;75;629919;-75
2023/03/22 00:28:39;;;;;;;2.50;1.20;;;;;;;6.45;71.70;97649.66;1706366;75;688745;-76
2023/03/22 00:31:11;;;;;;;2.30;1.00;;;;;;;6.49;71.75;97644.84;1714737;75;629973;-74
2023/03/22 00:33:41;;;;;;;1.10;1.00;;;;;;;6.49;71.50;97639.41;1706598;75;688822;-77
2023/03/22 00:36:14;;;;;;;1.05;1.00;;;;;;;6.42;72.28;97642.38;1714072;75;629962;-74
2023/03/22 00:38:44;;;;;;;0.90;0.80;;;;;;;6.43;72.45;97630.31;1705888;75;688875;-74
2023/03/22 00:41:20;;;;;;;0.80;0.80;;;;;;;6.28;72.42;97639.03;1714077;75;630167;-75
2023/03/22 00:43:52;;;;;;;0.90;0.85;;;;;;;6.30;72.36;97636.63;1705855;75;688810;-74
2023/03/22 00:46:23;;;;;;;1.20;0.80;;;;;;;6.24;71.58;97627.53;1713714;75;629950;-75
2023/03/22 00:48:54;;;;;;;0.70;0.70;;;;;;;6.18;72.94;97619.22;1705824;75;688785;-74
2023/03/22 00:51:24;;;;;;;0.80;0.80;;;;;;;6.15;73.52;97622.78;1714072;75;629982;-75
2023/03/22 00:53:54;;;;;;;0.80;0.80;;;;;;;6.13;73.45;97627.16;1705907;75;688374;-77
2023/03/22 00:56:27;;;;;;;0.80;0.80;;;;;;;6.08;72.51;97631.22;1714068;75;629914;-74
2023/03/22 00:58:58;;;;;;;0.75;0.70;;;;;;;6.02;74.39;97624.88;1705807;75;689215;-74
2023/03/22 01:01:28;;;;;;;1.70;1.20;;;;;;;5.79;75.11;97628.78;1713928;75;629941;-76
2023/03/22 01:03:58;;;;;;;1.30;1.10;;;;;;;5.87;75.63;97624.63;1705648;75;688845;-77
2023/03/22 01:06:28;;;;;;;1.10;1.00;;;;;;;5.86;75.32;97620.38;1713889;75;629925;-76
2023/03/22 01:08:59;;;;;;;1.15;0.90;;;;;;;5.91;74.45;97619.78;1705771;75;688867;-75
2023/03/22 01:11:31;;;;;;;1.15;0.90;;;;;;;5.95;74.43;97617.72;1713602;75;629981;-74
2023/03/22 01:14:02;;;;;;;1.10;1.00;;;;;;;5.92;75.03;97609.69;1705322;75;688800;-74
2023/03/22 01:16:32;;;;;;;1.70;1.20;;;;;;;5.95;75.16;97615.00;1713850;75;629938;-74
2023/03/22 01:19:02;;;;;;;1.55;1.10;;;;;;;5.92;75.46;97613.16;1705681;75;685180;-75
2023/03/22 01:21:33;;;;;;;1.20;0.90;;;;;;;5.91;75.13;97617.06;1713879;75;629958;-75
2023/03/22 01:24:03;;;;;;;1.45;1.00;;;;;;;5.89;75.29;97611.34;1705612;75;689822;-75
2023/03/22 01:26:36;;;;;;;1.70;1.00;;;;;;;5.88;75.35;97604.38;1713162;75;630045;-76
2023/03/22 01:29:07;;;;;;;1.20;0.80;;;;;;;5.89;75.03;97603.19;1705567;75;686255;-78
2023/03/22 01:31:37;;;;;;;2.05;1.10;;;;;;;5.84;75.30;97603.75;1713506;75;629989;-73
2023/03/22 01:34:08;;;;;;;1.30;1.00;;;;;;;5.82;76.27;97600.75;1705490;75;688896;-75
2023/03/22 01:36:38;;;;;;;1.00;0.90;;;;;;;5.83;74.92;97598.78;1713425;75;629990;-74
2023/03/22 01:39:09;;;;;;;1.85;1.00;;;;;;;5.81;75.04;97601.19;1705671;75;688787;-74
2023/03/22 01:41:42;;;;;;;1.20;0.80;;;;;;;5.79;76.00;97595.44;1713666;75;629938;-74
2023/03/22 01:44:15;;;;;;;1.40;1.00;;;;;;;5.72;76.90;97597.22;1705790;75;688871;-76
2023/03/22 01:46:47;;;;;;;0.90;0.70;;;;;;;5.74;76.31;97591.31;1713628;75;629949;-75
2023/03/22 01:49:24;;;;;;;2.25;0.80;;;;;;;5.70;76.80;97591.47;1705871;75;688658;-76
2023/03/22 01:51:59;;;;;;;0.80;0.80;;;;;;;5.73;76.93;97592.53;1706111;75;630018;-77
2023/03/22 01:54:37;;;;;;;1.80;0.80;;;;;;;5.76;76.41;97588.94;1713618;75;629937;-76
2023/03/22 01:57:10;;;;;;;0.70;0.70;;;;;;;5.74;75.43;97589.38;1706170;75;629940;-78
2023/03/22 01:59:43;;;;;;;0.80;0.70;;;;;;;5.69;77.02;97587.22;1713957;75;629921;-75
2023/03/22 02:02:17;;;;;;;0.70;0.70;;;;;;;5.62;77.96;97586.72;1706170;75;629947;-76
2023/03/22 02:04:56;;;;;;;0.80;0.80;;;;;;;5.62;77.53;97594.88;1713121;75;629939;-76
2023/03/22 02:07:27;;;;;;;0.75;0.75;;;;;;;5.67;76.75;97591.59;1705773;75;688808;-77
2023/03/22 02:09:58;;;;;;;0.90;0.90;;;;;;;5.67;76.83;97595.06;1713604;75;629942;-76
2023/03/22 02:12:42;;;;;;;0.80;0.75;;;;;;;5.67;76.45;97586.16;1705343;75;689887;-75
2023/03/22 02:15:20;;;;;;;0.70;0.70;;;;;;;5.66;77.04;97593.56;1705925;75;630017;-74
2023/03/22 02:18:10;;;;;;;0.70;0.70;;;;;;;5.65;76.56;97583.13;1713546;75;629925;-76
2023/03/22 02:21:29;;;;;;;0.60;0.60;;;;;;;5.61;77.53;97598.81;1705497;75;689860;-74
2023/03/22 02:24:57;;;;;;;1.10;0.80;;;;;;;5.57;77.43;97598.16;1705435;75;689850;-76
2023/03/22 02:28:01;;;;;;;0.60;0.60;;;;;;;5.46;77.80;97590.41;1705537;75;689830;-75
2023/03/22 02:31:32;;;;;;;0.85;0.80;;;;;;;5.43;77.75;97594.00;1705709;75;690975;-75
2023/03/22 02:34:54;;;;;;;0.85;0.70;;;;;;;5.38;77.34;97598.03;1704288;75;686490;-75
2023/03/22 02:38:13;;;;;;;1.10;0.90;;;;;;;5.38;77.47;97589.91;1705703;75;686948;-76
2023/03/22 02:40:53;;;;;;;0.80;0.80;;;;;;;5.37;77.75;97598.50;1705406;75;689703;-76
2023/03/22 02:43:37;;;;;;;0.70;0.70;;;;;;;5.32;77.94;97594.41;1705962;75;631889;-75
2023/03/22 02:46:12;;;;;;;0.65;0.65;;;;;;;5.40;77.71;97590.22;1713591;75;629954;-77
2023/03/22 02:48:50;;;;;;;0.80;0.80;;;;;;;5.32;79.58;97592.44;1706006;75;629900;-76
2023/03/22 02:51:23;;;;;;;;;;;;;;;5.29;79.59;97593.31;1706164;75;629954;-77
2023/03/22 02:53:59;;;;;;;0.50;0.50;;;;;;;5.30;80.20;97588.66;1712946;75;630995;-74
2023/03/22 02:56:38;;;;;;;0.70;0.70;;;;;;;5.30;80.66;97592.09;1705313;75;633067;-74
2023/03/22 02:59:10;;;;;;;;;;;;;;;5.27;80.26;97597.69;1713621;75;629965;-76
2023/03/22 03:01:44;;;;;;;0.70;0.70;;;;;;;5.23;79.44;97589.66;1705506;75;629974;-76
2023/03/22 03:04:19;;;;;;;1.30;0.60;;;;;;;5.26;79.41;97594.19;1713390;75;631565;-75
2023/03/22 03:06:53;;;;;;;0.85;0.80;;;;;;;5.30;80.01;97596.78;1705624;75;689021;-76
2023/03/22 03:09:25;;;;;;;0.60;0.60;;;;;;;5.28;79.26;97602.66;1713102;75;629947;-77
2023/03/22 03:11:58;;;;;;;0.70;0.70;;;;;;;5.29;80.02;97601.47;1705201;75;685975;-73
2023/03/22 03:14:31;;;;;;;1.00;0.90;;;;;;;5.32;80.52;97594.41;1712937;75;629923;-74
2023/03/22 03:17:18;;;;;;;0.75;0.75;;;;;;;5.31;80.38;97601.75;1705374;75;688760;-75
2023/03/22 03:20:06;;;;;;;1.10;0.80;;;;;;;5.24;80.94;97595.81;1705944;75;630295;-76
2023/03/22 03:22:50;;;;;;;0.70;0.70;;;;;;;5.21;82.07;97597.47;1713373;75;629918;-74
2023/03/22 03:25:29;;;;;;;1.10;0.75;;;;;;;5.18;81.95;97606.50;1705529;75;690675;-74
2023/03/22 03:28:14;;;;;;;0.90;0.80;;;;;;;5.18;80.56;97597.59;1705690;75;636879;-75
2023/03/22 03:30:53;;;;;;;0.85;0.75;;;;;;;5.10;80.97;97608.69;1713475;75;630840;-75
2023/03/22 03:33:27;;;;;;;0.70;0.70;;;;;;;5.07;81.11;97611.53;1705378;75;689277;-79
2023/03/22 03:36:03;;;;;;;1.00;0.80;;;;;;;5.08;81.39;97613.06;1713554;75;629954;-73
2023/03/22 03:38:38;;;;;;;1.20;0.90;;;;;;;5.05;80.53;97609.25;1705240;75;690933;-76
2023/03/22 03:41:15;;;;;;;1.30;1.00;;;;;;;5.02;80.86;97609.38;1705500;75;629950;-74
2023/03/22 03:43:50;;;;;;;0.85;0.70;;;;;;;5.01;80.92;97613.28;1713217;75;629946;-75
2023/03/22 03:46:20;;;;;;;0.70;0.70;;;;;;;4.95;81.23;97607.66;1705963;75;629943;-76
2023/03/22 03:48:53;;;;;;;0.80;0.80;;;;;;;4.96;81.05;97611.13;1713489;75;629957;-77
2023/03/22 03:51:24;;;;;;;1.30;1.00;;;;;;;4.91;81.52;97604.31;1705867;75;630899;-77
2023/03/22 03:53:54;;;;;;;1.20;0.80;;;;;;;4.83;82.14;97609.19;1712891;75;631373;-75
2023/03/22 03:56:24;;;;;;;0.90;0.80;;;;;;;4.83;82.01;97606.47;1706289;75;630034;-75
2023/03/22 03:58:57;;;;;;;0.80;0.80;;;;;;;4.88;81.21;97607.88;1713954;75;629902;-78
2023/03/22 04:01:27;;;;;;;0.80;0.80;;;;;;;4.83;81.54;97603.78;1706530;75;630942;-75
2023/03/22 04:03:57;;;;;;;0.80;0.80;;;;;;;4.85;80.94;97611.47;1714143;75;630840;-74
2023/03/22 04:06:27;;;;;;;0.70;0.70;;;;;;;4.80;82.02;97610.06;1706660;75;630991;-75
2023/03/22 04:08:58;;;;;;;1.70;1.00;;;;;;;4.67;82.01;97610.13;1713732;75;630987;-74
2023/03/22 04:11:28;;;;;;;1.10;1.00;;;;;;;4.68;83.35;97608.16;1706045;75;630987;-74
2023/03/22 04:14:00;;;;;;;1.30;1.15;;;;;;;4.70;83.04;97611.94;1713873;75;630952;-74
2023/03/22 04:16:31;;;;;;;0.80;0.80;;;;;;;4.74;82.75;97613.78;1705980;75;631568;-76
2023/03/22 04:19:01;;;;;;;1.50;1.20;;;;;;;4.66;84.36;97619.44;1713096;75;632368;-75
2023/03/22 04:21:31;;;;;;;1.10;1.00;;;;;;;4.66;83.61;97615.97;1706497;75;631960;-75
2023/03/22 04:24:01;;;;;;;1.20;1.00;;;;;;;4.63;84.72;97614.88;1713663;75;631982;-77
2023/03/22 04:26:31;;;;;;;0.80;0.80;;;;;;;4.63;84.66;97617.59;1706264;75;630977;-75
2023/03/22 04:29:04;;;;;;;1.90;1.20;;;;;;;4.68;84.83;97627.13;1713519;75;631011;-76
2023/03/22 04:31:36;;;;;;;1.55;1.45;;;;;;;4.53;85.44;97621.41;1705280;75;687593;-74
2023/03/22 04:34:07;;;;;;;1.80;1.40;;;;;;;4.63;85.89;97627.69;1713607;75;630951;-76
2023/03/22 04:36:39;;;;;;;1.40;1.25;;;;;;;4.66;84.79;97627.56;1705650;75;689726;-75
2023/03/22 04:39:12;;;;;;;1.30;1.10;;;;;;;4.74;84.51;97619.97;1713335;75;631335;-75
2023/03/22 04:41:43;;;;;;;1.05;0.95;;;;;;;4.80;84.57;97620.94;1705385;75;685503;-74
2023/03/22 04:44:15;;;;;;;1.40;0.90;;;;;;;4.79;84.25;97626.81;1713759;75;631078;-74
2023/03/22 04:46:46;;;;;;;1.15;0.80;;;;;;;4.82;83.93;97623.22;1705393;75;689890;-75
2023/03/22 04:49:16;;;;;;;0.90;0.90;;;;;;;4.83;83.46;97624.72;1713198;75;631003;-75
2023/03/22 04:51:46;;;;;;;0.95;0.90;;;;;;;4.87;84.41;97619.94;1705265;75;687819;-74
2023/03/22 04:54:16;;;;;;;1.90;0.90;;;;;;;4.93;84.17;97618.19;1713383;75;630983;-75
2023/03/22 04:56:46;;;;;;;0.80;0.80;;;;;;;4.95;84.38;97623.91;1705471;75;690939;-75
2023/03/22 04:59:20;;;;;;;1.00;0.90;;;;;;;4.98;83.98;97620.34;1713579;75;632936;-74
2023/03/22 05:01:50;;;;;;;0.85;0.85;;;;;;;4.93;84.27;97609.28;1705366;75;691062;-75
2023/03/22 05:04:21;;;;;;;1.80;1.00;;;;;;;5.00;84.51;97625.31;1713808;75;632979;-73
2023/03/22 05:06:52;;;;;;;1.30;1.00;;;;;;;5.00;84.55;97612.50;1705721;75;690961;-73
2023/03/22 05:09:22;;;;;;;0.80;0.80;;;;;;;5.09;84.08;97617.28;1713470;75;633060;-74
2023/03/22 05:11:52;;;;;;;1.05;0.95;;;;;;;5.15;83.88;97623.66;1705588;75;687258;-74
2023/03/22 05:14:25;;;;;;;0.70;0.70;;;;;;;5.17;83.22;97623.97;1713733;75;632037;-73
2023/03/22 05:16:56;;;;;;;0.90;0.70;;;;;;;5.21;83.48;97621.88;1705617;75;688144;-74
2023/03/22 05:19:26;;;;;;;1.30;1.10;;;;;;;5.21;83.57;97630.03;1713646;75;630986;-75
2023/03/22 05:21:57;;;;;;;1.00;0.90;;;;;;;5.29;82.93;97620.47;1705610;75;689823;-76
2023/03/22 05:24:27;;;;;;;0.90;0.90;;;;;;;5.30;83.26;97624.69;1712901;75;632393;-74
2023/03/22 05:26:59;;;;;;;1.25;1.00;;;;;;;5.36;82.87;97622.16;1705467;75;686388;-73
2023/03/22 05:29:35;;;;;;;1.10;1.00;;;;;;;5.42;82.52;97625.06;1712817;75;633088;-77
2023/03/22 05:32:05;;;;;;;1.45;0.95;;;;;;;5.39;83.09;97629.44;1705630;75;689818;-77
2023/03/22 05:34:37;;;;;;;1.00;0.90;;;;;;;5.51;82.51;97633.28;1713913;75;631886;-75
2023/03/22 05:37:07;;;;;;;1.10;1.00;;;;;;;5.53;83.04;97634.38;1706074;75;687634;-75
2023/03/22 05:39:37;;;;;;;1.10;1.00;;;;;;;5.59;83.18;97631.81;1714057;75;633060;-75
2023/03/22 05:42:07;;;;;;;1.10;1.00;;;;;;;5.62;82.72;97622.03;1705996;75;690837;-74
2023/03/22 05:44:40;;;;;;;1.20;1.10;;;;;;;5.67;82.90;97629.59;1714147;75;631883;-75
2023/03/22 05:47:10;;;;;;;1.15;1.05;;;;;;;5.75;82.04;97625.44;1705882;75;693017;-75
2023/03/22 05:49:40;;;;;;;1.10;1.05;;;;;;;5.82;81.96;97627.13;1713972;75;632045;-76
2023/03/22 05:52:11;;;;;;;1.35;1.10;;;;;;;5.88;81.48;97626.13;1706091;75;692417;-74
2023/03/22 05:54:41;;;;;;;0.80;0.80;;;;;;;5.87;81.83;97626.56;1713601;75;632005;-75
2023/03/22 05:57:11;;;;;;;1.15;1.05;;;;;;;5.97;81.51;97636.31;1706160;75;691975;-75
2023/03/22 05:59:44;;;;;;;1.30;0.90;;;;;;;6.00;82.50;97638.13;1714155;75;633008;-76
2023/03/22 06:02:14;;;;;;;2.40;1.50;;;;;;;5.97;82.27;97637.06;1706603;75;687766;-77
2023/03/22 06:04:45;;;;;;;1.40;1.30;;;;;;;6.04;81.74;97635.28;1714232;75;632025;-74
2023/03/22 06:07:16;;;;;;;2.45;1.65;;;;;;;6.15;82.43;97639.09;1706528;75;690944;-75
2023/03/22 06:09:46;;;;;;;1.50;1.10;;;;;;;6.28;80.96;97643.72;1714272;75;630988;-75
2023/03/22 06:12:21;;;;;;;3.35;2.10;;;;;;;6.31;81.77;97650.97;1706180;75;690980;-75
2023/03/22 06:14:54;;;;;;;2.25;1.75;;;;;;;6.42;81.39;97639.66;1713473;75;631990;-74
2023/03/22 06:17:25;;;;;;;2.00;1.80;;;;;;;6.42;80.54;97645.09;1713643;75;632096;-76
2023/03/22 06:19:56;;;;;;;1.60;1.50;;;;;;;6.48;79.58;97648.78;1706424;75;630980;-75
2023/03/22 06:22:29;;;;;;;1.65;1.30;;;;;;;6.57;79.58;97651.53;1714095;75;631871;-75
2023/03/22 06:25:00;;;;;;;2.20;1.80;;;;;;;6.57;79.43;97652.28;1706050;75;631954;-73
2023/03/22 06:27:30;;;;;;;2.40;1.60;;;;;;;6.57;79.03;97652.28;1713507;75;632040;-75
2023/03/22 06:30:02;;;;;;;1.90;1.30;;;;;;;6.63;79.06;97657.13;1706034;75;631998;-77
2023/03/22 06:32:33;;;;;;;2.60;1.50;;;;;;;6.71;78.96;97652.91;1714249;75;632017;-75
2023/03/22 06:35:03;;;;;;;1.80;1.50;;;;;;;6.80;78.57;97656.41;1706773;75;630988;-73
2023/03/22 06:37:33;;;;;;;1.40;1.20;;;;;;;6.88;77.71;97653.41;1714387;75;632106;-76
2023/03/22 06:40:03;;;;;;;2.05;1.30;;;;;;;7.01;78.00;97662.22;1706385;75;632019;-76
2023/03/22 06:42:33;;;;;;;1.70;1.50;;;;;;;7.06;77.14;97661.59;1714021;75;631198;-73
2023/03/22 06:45:08;;;;;;;2.20;1.70;;;;;;;7.08;77.75;97667.34;1705867;75;632015;-77
2023/03/22 06:47:40;;;;;;;3.10;2.30;;;;;;;7.02;77.80;97663.69;1713405;75;632001;-76
2023/03/22 06:50:13;;;;;;;3.55;2.25;;;;;;;7.22;77.19;97657.84;1706483;75;631938;-74
2023/03/22 06:52:43;;;;;;;2.70;2.40;;;;;;;7.44;76.08;97653.00;1713562;75;633065;-75
2023/03/22 06:55:14;;;;;;;2.50;2.00;;;;;;;7.56;75.03;97664.97;1706684;75;633012;-75
2023/03/22 06:57:44;;;;;;;2.40;2.10;;;;;;;7.79;74.25;97670.97;1713496;75;632098;-74
2023/03/22 07:00:19;;;;;;;2.45;1.80;;;;;;;8.05;73.53;97663.22;1705941;75;631138;-74
2023/03/22 07:02:49;;;;;;;2.85;2.05;;;;;;;8.05;72.72;97672.16;1713595;75;631060;-76
2023/03/22 07:05:20;;;;;;;2.05;1.80;;;;;;;8.29;71.84;97668.75;1705704;75;690934;-75
2023/03/22 07:07:50;;;;;;;3.55;2.10;;;;;;;8.40;71.64;97671.78;1713212;75;630978;-75
2023/03/22 07:10:20;;;;;;;2.25;1.75;;;;;;;8.50;70.83;97673.25;1705859;75;687521;-74
2023/03/22 07:12:50;;;;;;;3.50;2.40;;;;;;;8.55;70.51;97665.66;1713322;75;633048;-76
2023/03/22 07:15:26;;;;;;;3.15;2.10;;;;;;;8.77;69.97;97673.59;1706146;75;689922;-74
2023/03/22 07:17:57;;;;;;;3.45;2.05;;;;;;;8.78;69.62;97672.38;1706430;75;631894;-74
2023/03/22 07:20:27;;;;;;;2.90;1.90;;;;;;;8.90;69.38;97676.88;1713276;75;630979;-75
2023/03/22 07:22:58;;;;;;;2.50;1.85;;;;;;;8.98;69.06;97674.56;1706321;75;632026;-75
2023/03/22 07:25:28;;;;;;;2.30;1.50;;;;;;;9.19;68.37;97670.78;1713687;75;632016;-74
2023/03/22 07:27:58;;;;;;;1.70;1.40;;;;;;;9.27;68.24;97669.19;1706644;75;632013;-74
2023/03/22 07:30:34;;;;;;;3.20;1.60;;;;;;;9.36;67.96;97668.38;1713134;75;633089;-77
2023/03/22 07:33:04;;;;;;;2.70;1.80;;;;;;;9.38;67.85;97669.41;1706552;75;633117;-74
2023/03/22 07:35:35;;;;;;;2.65;1.85;;;;;;;9.49;67.06;97662.66;1713688;75;633144;-75
2023/03/22 07:38:06;;;;;;;2.40;1.50;;;;;;;9.60;67.53;97671.06;1706232;75;633056;-75
2023/03/22 07:40:36;;;;;;;1.70;1.30;;;;;;;9.80;67.26;97668.44;1713324;75;631006;-74
2023/03/22 07:43:07;;;;;;;1.85;1.60;;;;;;;9.84;66.34;97668.28;1706484;75;632889;-74
2023/03/22 07:45:39;;;;;;;3.20;2.30;;;;;;;9.88;66.65;97676.28;1713844;75;632038;-75
2023/03/22 07:48:12;;;;;;;2.80;2.00;;;;;;;9.97;66.80;97665.25;1706353;75;632103;-77
2023/03/22 07:50:42;;;;;;;2.40;1.80;;;;;;;10.17;64.81;97668.09;1714045;75;633023;-75
2023/03/22 07:53:12;;;;;;;3.50;1.80;;;;;;;10.26;64.89;97669.97;1706200;75;633052;-75
2023/03/22 07:55:43;;;;;;;4.30;3.05;;;;;;;10.23;65.24;97668.94;1713743;75;634111;-75
2023/03/22 07:58:14;;;;;;;4.55;3.35;;;;;;;10.44;64.99;97669.78;1705502;75;632018;-75
2023/03/22 08:00:48;;;;;;;3.20;2.30;;;;;;;10.63;63.79;97664.84;1713626;75;633083;-73
2023/03/22 08:03:18;;;;;;;2.40;1.80;;;;;;;10.90;63.37;97673.94;1706332;75;632955;-76
2023/03/22 08:05:50;;;;;;;3.80;2.80;;;;;;;10.88;62.10;97668.19;1714064;75;632006;-75
2023/03/22 08:08:20;;;;;;;4.50;2.90;;;;;;;10.84;62.34;97667.63;1706078;75;633020;-74
2023/03/22 08:10:53;;;;;;;4.00;2.90;;;;;;;11.02;62.78;97669.38;1713934;75;631997;-75
2023/03/22 08:13:23;;;;;;;6.25;3.20;;;;;;;11.11;62.23;97669.22;1706019;75;686849;-74
2023/03/22 08:15:56;;;;;;;6.10;3.85;;;;;;;11.10;61.50;97664.97;1713781;75;632015;-74
2023/03/22 08:18:26;;;;;;;4.15;2.65;;;;;;;11.30;61.16;97672.44;1706091;75;690937;-73
2023/03/22 08:20:57;;;;;;;2.90;2.40;;;;;;;11.39;61.57;97672.31;1713719;75;633048;-75
2023/03/22 08:23:29;;;;;;;3.60;2.20;;;;;;;11.49;60.49;97670.91;1706028;75;689759;-73
2023/03/22 08:25:59;;;;;;;5.90;3.00;;;;;;;11.52;59.93;97671.97;1714157;75;634094;-74
2023/03/22 08:28:29;;;;;;;3.45;2.25;;;;;;;11.70;59.31;97668.16;1706249;75;689377;-75
2023/03/22 08:31:02;;;;;;;2.45;1.80;;;;;;;11.94;59.74;97667.94;1713784;75;634098;-74
2023/03/22 08:33:32;;;;;;;2.35;2.00;;;;;;;11.98;59.44;97668.47;1706196;75;689975;-74
2023/03/22 08:36:13;;;;;;;3.05;2.15;;;;;;;11.97;58.33;97666.94;1714487;75;632081;-78
2023/03/22 08:38:44;;;;;;;6.40;2.40;;;;;;;12.04;59.18;97665.78;1706362;75;690904;-74
2023/03/22 08:41:14;;;;;;;4.00;2.70;;;;;;;12.18;58.63;97672.38;1714399;75;632091;-76
2023/03/22 08:43:45;;;;;;;2.95;2.00;;;;;;;12.32;58.00;97663.28;1706437;75;689788;-76
2023/03/22 08:46:17;;;;;;;2.30;1.70;;;;;;;12.67;57.30;97660.25;1714668;75;633051;-76
2023/03/22 08:48:49;;;;;;;2.60;1.90;;;;;;;12.89;56.88;97656.13;1706516;75;688199;-75
2023/03/22 08:51:20;;;;;;;3.40;2.30;;;;;;;12.97;56.50;97655.19;1714647;75;631993;-77
2023/03/22 08:53:57;;;;;;;3.05;2.15;;;;;;;13.17;54.95;97648.03;1706553;75;690703;-76
2023/03/22 08:56:27;;;;;;;6.10;3.50;;;;;;;13.24;54.98;97635.84;1706969;75;632014;-77
2023/03/22 08:58:57;;;;;;;4.40;2.10;;;;;;;13.76;54.33;97650.00;1714459;75;632936;-75
2023/03/22 09:01:30;;;;;;;5.00;2.80;;;;;;;13.50;54.30;97641.19;1706564;75;633088;-77
2023/03/22 09:04:01;;;;;;;4.50;2.50;;;;;;;14.03;53.08;97640.28;1714620;75;633110;-74
2023/03/22 09:06:31;;;;;;;2.90;2.30;;;;;;;14.30;52.90;97645.56;1707224;75;633030;-75
2023/03/22 09:09:02;;;;;;;4.00;2.50;;;;;;;13.93;51.95;97635.53;1714542;75;632006;-72
2023/03/22 09:11:32;;;;;;;4.00;2.40;;;;;;;14.56;51.79;97632.28;1706866;75;632015;-74
2023/03/22 09:14:02;;;;;;;4.40;2.70;;;;;;;14.51;50.80;97627.50;1714150;75;633059;-77
2023/03/22 09:16:38;;;;;;;4.50;2.10;;;;;;;14.81;50.69;97635.97;1706743;75;631862;-74
2023/03/22 09:19:08;;;;;;;2.85;1.60;;;;;;;15.11;49.18;97633.38;1714401;75;633063;-74
2023/03/22 09:21:38;;;;;;;2.70;1.80;;;;;;;15.59;48.24;97631.41;1707265;75;633047;-75
2023/03/22 09:24:10;;;;;;;3.50;1.90;;;;;;;15.91;46.80;97623.47;1714074;75;633083;-75
2023/03/22 09:26:40;;;;;;;2.50;1.40;;;;;;;16.35;45.57;97623.63;1707353;75;631986;-78
2023/03/22 09:29:11;;;;;;;1.80;1.50;;;;;;;16.77;43.86;97621.47;1714148;75;631981;-76
2023/03/22 09:31:47;;;;;;;1.95;1.40;;;;;;;17.31;42.75;97619.84;1706791;75;632035;-75
2023/03/22 09:34:17;;;;;;;3.00;2.20;;;;;;;17.06;43.85;97619.91;1714519;75;632236;-77
2023/03/22 09:36:48;;;;;;;2.35;1.50;;;;;;;18.08;41.56;97616.53;1706962;75;632003;-78
2023/03/22 09:39:18;;;;;;;2.90;2.00;;;;;;;18.68;39.64;97615.25;1714292;75;632028;-81
2023/03/22 09:41:52;;;;;;;2.90;1.60;;;;;;;19.02;39.12;97609.84;1706383;75;633024;-76
2023/03/22 09:44:30;;;;;;;3.40;1.90;;;;;;;19.76;36.98;97611.84;1713730;75;631015;-75
2023/03/22 09:47:05;;;;;;;3.90;1.60;;;;;;;20.26;36.77;97604.34;1706261;75;690839;-77
2023/03/22 09:49:42;;;;;;;3.65;2.35;;;;;;;19.52;37.91;97605.28;1712373;75;633071;-74
2023/03/22 09:52:16;;;;;;;3.95;2.80;;;;;;;19.30;38.11;97612.06;1714301;75;632017;-77
2023/03/22 09:54:50;;;;;;;5.60;2.40;;;;;;;19.57;37.52;97615.50;1707004;75;632884;-75
2023/03/22 09:57:31;;;;;;;3.70;2.20;;;;;;;19.52;37.57;97607.31;1714366;75;633071;-78
2023/03/22 10:00:15;;;;;;;3.00;2.00;;;;;;;19.70;37.37;97609.22;1706296;75;690859;-76
2023/03/22 10:03:00;;;;;;;4.30;2.60;;;;;;;19.08;39.13;97598.66;1707070;75;630981;-74
2023/03/22 10:05:40;;;;;;;4.00;2.90;;;;;;;18.65;40.13;97600.44;1714573;75;632941;-76
2023/03/22 10:08:43;;;;;;;4.20;2.25;;;;;;;20.08;37.68;97592.16;1706373;75;689868;-76
2023/03/22 10:11:25;;;;;;;4.20;2.10;;;;;;;20.60;36.28;97590.34;1706271;75;694041;-76
2023/03/22 10:14:04;;;;;;;4.40;2.10;;;;;;;21.20;33.93;97579.38;1706909;75;633067;-76
2023/03/22 10:16:37;;;;;;;3.00;1.80;;;;;;;21.74;32.48;97585.13;1714499;75;633069;-75
2023/03/22 10:19:19;;;;;;;2.90;2.30;;;;;;;22.01;31.66;97579.97;1706783;75;630977;-74
2023/03/22 10:21:52;;;;;;;3.20;2.20;;;;;;;21.84;32.17;97569.34;1710828;75;632037;-77
2023/03/22 10:24:30;;;;;;;2.75;2.25;;;;;;;22.15;32.59;97561.75;1714497;75;633079;-74
2023/03/22 10:27:00;;;;;;;;;;;;;;;22.55;31.67;97564.72;1706959;75;632131;-77
2023/03/22 10:29:38;;;;;;;4.20;2.40;;;;;;;22.45;32.00;97565.84;1713593;75;633084;-74
2023/03/22 10:32:20;;;;;;;2.65;2.00;;;;;;;22.88;31.75;97567.63;1706932;75;632647;-76
2023/03/22 10:34:54;;;;;;;3.30;2.30;;;;;;;22.79;31.50;97565.41;1707106;75;634090;-74
2023/03/22 10:37:33;;;;;;;3.20;1.60;;;;;;;23.61;31.69;97561.38;1714473;75;632049;-76
2023/03/22 10:40:08;;;;;;;3.00;1.90;;;;;;;23.64;31.50;97565.09;1706830;75;634009;-75
2023/03/22 10:42:41;;;;;;;3.00;2.10;;;;;;;23.61;30.62;97559.31;1714343;75;634110;-74
2023/03/22 10:45:17;;;;;;;2.30;1.80;;;;;;;23.57;30.09;97555.44;1706969;75;633057;-75
2023/03/22 10:47:56;;;;;;;2.70;2.00;;;;;;;23.54;30.10;97554.50;1714456;75;632940;-75
2023/03/22 10:50:35;;;;;;;3.30;2.00;;;;;;;23.39;29.97;97555.34;1706624;75;689475;-72
2023/03/22 10:53:09;;;;;;;2.90;2.20;;;;;;;22.95;30.95;97558.50;1706924;75;633002;-74
2023/03/22 10:55:43;;;;;;;2.70;2.00;;;;;;;23.16;30.21;97549.13;1714432;75;634102;-75
2023/03/22 10:58:17;;;;;;;3.35;2.00;;;;;;;23.32;29.93;97552.59;1706882;75;633059;-76
2023/03/22 11:00:49;;;;;;;3.50;2.05;;;;;;;23.04;29.76;97548.06;1714323;75;633970;-75
2023/03/22 11:03:39;;;;;;;3.10;1.90;;;;;;;23.59;29.42;97541.63;1706625;75;630965;-73
2023/03/22 11:06:16;;;;;;;4.40;2.20;;;;;;;23.24;29.87;97538.66;1706806;75;635837;-73
2023/03/22 11:08:50;;;;;;;2.25;2.00;;;;;;;23.24;30.33;97537.94;1714409;75;632072;-76
2023/03/22 11:11:25;;;;;;;3.20;2.00;;;;;;;23.33;29.55;97535.28;1706854;75;634085;-77
2023/03/22 11:14:03;;;;;;;3.40;2.10;;;;;;;23.36;29.56;97539.72;1713868;75;632932;-76
2023/03/22 11:16:35;;;;;;;3.30;1.80;;;;;;;23.33;29.50;97531.72;1706235;75;695071;-76
2023/03/22 11:19:05;;;;;;;2.20;2.00;;;;;;;22.88;29.66;97525.75;1714560;75;632064;-76
2023/03/22 11:21:39;;;;;;;3.15;2.30;;;;;;;23.07;30.03;97527.41;1706405;75;689905;-76
2023/03/22 11:24:15;;;;;;;4.30;2.20;;;;;;;22.89;29.76;97524.44;1714183;75;632964;-73
2023/03/22 11:27:04;;;;;;;2.05;1.80;;;;;;;22.63;30.40;97522.09;1706158;75;693014;-75
2023/03/22 11:29:46;;;;;;;3.60;2.20;;;;;;;22.72;30.64;97527.09;1706695;75;632944;-74
2023/03/22 11:32:32;;;;;;;2.70;1.60;;;;;;;23.41;29.60;97509.34;1714239;75;631898;-74
2023/03/22 11:35:14;;;;;;;1.90;1.70;;;;;;;23.77;29.59;97506.88;1705994;75;691433;-75
2023/03/22 11:37:53;;;;;;;1.80;1.30;;;;;;;23.91;29.19;97503.78;1706659;75;632046;-75
2023/03/22 11:40:29;;;;;;;2.05;1.40;;;;;;;23.96;28.98;97494.44;1714581;75;631419;-78
2023/03/22 11:43:19;;;;;;;3.70;1.80;;;;;;;23.94;28.49;97480.28;1707064;75;632226;-75
2023/03/22 11:45:55;;;;;;;2.60;1.80;;;;;;;24.00;28.72;97478.75;1706611;75;634053;-74
2023/03/22 11:48:30;;;;;;;2.40;1.50;;;;;;;23.39;28.83;97477.13;1714128;75;633060;-76
2023/03/22 11:51:09;;;;;;;3.20;1.70;;;;;;;23.78;29.00;97471.28;1706292;75;633991;-77
2023/03/22 11:53:47;;;;;;;1.50;1.30;;;;;;;24.44;28.38;97471.81;1706569;75;633063;-76
2023/03/22 11:56:28;;;;;;;0.80;0.80;;;;;;;24.36;28.59;97471.13;1714462;75;632952;-75
2023/03/22 11:59:02;;;;;;;2.90;1.45;;;;;;;24.13;28.63;97469.31;1706730;75;634121;-75
2023/03/22 12:01:49;;;;;;;3.45;1.60;;;;;;;23.95;28.40;97462.94;1714258;75;630956;-76
2023/03/22 12:04:23;;;;;;;3.40;1.60;;;;;;;23.11;29.18;97457.94;1706523;75;694023;-77